Time;durP1;ratioP1;P1;durP2;ratioP2;P2;SDS_P1;SDS_P2;PMS_P1;PMS_P2;Temp;Humidity;BMP_temperature;BMP_pressure;BME280_temperature;BME280_humidity;BME280_pressure;Samples;Min_cycle;Max_cycle;Signal;HPM_P1;HPM_P2
2021/09/29 00:00:24;;;;;;;7.38;6.05;;;;;;;14.56;100.00;101867.69;5116535;28;20020;-72
2021/09/29 00:03:09;;;;;;;8.43;5.85;;;;;;;14.86;100.00;101871.63;5116280;28;20128;-71
2021/09/29 00:05:55;;;;;;;9.05;5.97;;;;;;;14.83;100.00;101867.28;5116898;28;20031;-72
2021/09/29 00:08:41;;;;;;;9.50;6.60;;;;;;;15.12;100.00;101866.78;5101099;28;20367;-72
2021/09/29 00:11:27;;;;;;;11.20;5.95;;;;;;;15.17;100.00;101869.31;5116787;28;20019;-72
2021/09/29 00:14:13;;;;;;;11.07;6.78;;;;;;;14.93;100.00;101865.34;5115709;28;20040;-72
2021/09/29 00:16:58;;;;;;;10.05;6.72;;;;;;;15.28;100.00;101867.38;5116489;28;20057;-72
2021/09/29 00:19:44;;;;;;;10.85;8.05;;;;;;;15.08;100.00;101866.84;5116357;28;20104;-72
2021/09/29 00:22:30;;;;;;;10.85;7.30;;;;;;;14.84;100.00;101869.00;5115854;28;20106;-72
2021/09/29 00:25:16;;;;;;;11.05;8.68;;;;;;;14.37;100.00;101873.28;5115654;28;20023;-71
2021/09/29 00:28:02;;;;;;;14.20;8.68;;;;;;;14.38;100.00;101878.53;5116388;28;20028;-71
2021/09/29 00:31:01;;;;;;;10.05;8.70;;;;;;;14.56;100.00;101866.84;5114937;28;20027;-71
2021/09/29 00:33:50;;;;;;;12.90;9.48;;;;;;;14.72;100.00;101871.84;5100970;28;20337;-71
2021/09/29 00:36:38;;;;;;;13.20;9.27;;;;;;;14.70;100.00;101870.13;5115652;28;20190;-71
2021/09/29 00:39:24;;;;;;;11.63;9.18;;;;;;;14.67;100.00;101873.69;5115627;28;20028;-72
2021/09/29 00:42:10;;;;;;;11.85;8.48;;;;;;;14.76;100.00;101878.81;5115158;28;20106;-72
2021/09/29 00:44:55;;;;;;;10.45;8.80;;;;;;;14.60;100.00;101874.66;5101490;28;20024;-72
2021/09/29 00:47:41;;;;;;;15.02;8.88;;;;;;;14.59;100.00;101877.38;5115813;28;20039;-71
2021/09/29 00:50:27;;;;;;;10.95;8.85;;;;;;;14.87;100.00;101883.06;5114992;28;20023;-73
2021/09/29 00:53:13;;;;;;;10.48;9.15;;;;;;;14.64;100.00;101870.25;5115383;28;20116;-71
2021/09/29 00:55:59;;;;;;;11.80;8.90;;;;;;;14.37;100.00;101881.19;5115030;28;20045;-71
2021/09/29 00:58:45;;;;;;;10.27;8.43;;;;;;;14.82;100.00;101872.56;5115021;28;20103;-71
2021/09/29 01:01:32;;;;;;;12.23;8.73;;;;;;;14.76;100.00;101880.59;5115022;28;20100;-71
2021/09/29 01:04:21;;;;;;;12.25;8.52;;;;;;;14.95;100.00;101870.59;5100375;28;20070;-71
2021/09/29 01:07:18;;;;;;;10.75;8.95;;;;;;;15.20;100.00;101879.84;5100444;28;20036;-71
2021/09/29 01:10:25;;;;;;;11.25;9.63;;;;;;;15.16;100.00;101875.50;5115107;28;20102;-72
2021/09/29 01:13:21;;;;;;;12.60;10.43;;;;;;;14.47;100.00;101878.41;5114751;28;20027;-72
2021/09/29 01:16:11;;;;;;;17.05;12.38;;;;;;;14.53;100.00;101883.59;5099576;28;20016;-72
2021/09/29 01:18:58;;;;;;;15.75;12.27;;;;;;;14.21;100.00;101891.09;5099065;28;20114;-71
2021/09/29 01:21:50;;;;;;;14.85;12.43;;;;;;;14.50;100.00;101894.19;5114883;28;20042;-72
2021/09/29 01:24:49;;;;;;;16.55;11.90;;;;;;;14.46;100.00;101896.88;5099372;28;20031;-71
2021/09/29 01:27:36;;;;;;;14.13;11.73;;;;;;;14.39;100.00;101889.97;5114435;28;20040;-71
2021/09/29 01:30:21;;;;;;;15.02;12.73;;;;;;;14.29;100.00;101899.78;5113908;28;20122;-71
2021/09/29 01:33:08;;;;;;;16.17;12.75;;;;;;;14.58;100.00;101899.34;5113730;28;20413;-70
2021/09/29 01:35:54;;;;;;;18.42;13.25;;;;;;;14.40;100.00;101900.47;5114523;28;20103;-72
2021/09/29 01:38:42;;;;;;;14.50;12.05;;;;;;;14.44;100.00;101902.16;5113520;28;20027;-71
2021/09/29 01:41:30;;;;;;;15.90;11.38;;;;;;;14.45;100.00;101897.78;5113928;28;20147;-71
2021/09/29 01:44:16;;;;;;;12.95;10.50;;;;;;;14.54;100.00;101901.16;5114281;28;20023;-71
2021/09/29 01:47:03;;;;;;;15.93;10.98;;;;;;;14.53;100.00;101896.78;5113566;28;20044;-72
2021/09/29 01:49:51;;;;;;;14.45;10.57;;;;;;;14.79;100.00;101888.44;5113727;28;20027;-72
2021/09/29 01:52:43;;;;;;;12.18;10.40;;;;;;;14.60;100.00;101882.59;5114430;28;20114;-73
2021/09/29 01:55:29;;;;;;;14.52;10.20;;;;;;;15.12;100.00;101892.31;5112942;28;20046;-72
2021/09/29 01:58:16;;;;;;;11.68;9.98;;;;;;;14.94;100.00;101884.72;5115183;28;20439;-72
2021/09/29 02:01:02;;;;;;;14.60;9.90;;;;;;;15.30;100.00;101887.56;5114228;28;20132;-72
2021/09/29 02:03:47;;;;;;;13.23;10.93;;;;;;;14.76;100.00;101883.25;5114297;28;20028;-72
2021/09/29 02:07:03;;;;;;;13.98;10.10;;;;;;;14.76;100.00;101886.72;5114071;28;20513;-71
2021/09/29 02:09:50;;;;;;;13.02;9.23;;;;;;;15.16;100.00;101901.91;5109124;28;20433;-72
2021/09/29 02:12:36;;;;;;;14.55;9.68;;;;;;;14.93;100.00;101898.78;5100002;28;20034;-71
2021/09/29 02:15:22;;;;;;;13.10;9.20;;;;;;;15.23;100.00;101890.34;5099697;28;20020;-71
2021/09/29 02:18:07;;;;;;;14.38;9.45;;;;;;;15.12;100.00;101889.66;5099313;28;20024;-71
2021/09/29 02:20:53;;;;;;;12.48;8.65;;;;;;;14.95;100.00;101889.94;5113848;28;20031;-71
2021/09/29 02:23:39;;;;;;;11.43;8.30;;;;;;;15.18;100.00;101900.13;5114081;28;20027;-71
2021/09/29 02:26:25;;;;;;;11.15;8.55;;;;;;;14.84;100.00;101889.25;5113187;28;20024;-71
2021/09/29 02:29:13;;;;;;;16.15;8.38;;;;;;;14.88;100.00;101897.09;5114475;28;20023;-71
2021/09/29 02:31:59;;;;;;;12.63;8.63;;;;;;;14.95;100.00;101886.44;5113815;28;20476;-72
2021/09/29 02:34:44;;;;;;;14.00;9.82;;;;;;;15.22;100.00;101901.81;5099328;28;20070;-72
2021/09/29 02:37:30;;;;;;;13.13;9.73;;;;;;;14.78;100.00;101891.97;5098714;28;20024;-71
2021/09/29 02:40:16;;;;;;;15.63;10.23;;;;;;;14.99;100.00;101896.06;5099503;28;20501;-71
2021/09/29 02:43:02;;;;;;;13.15;9.05;;;;;;;15.28;100.00;101886.72;5113417;28;20030;-71
2021/09/29 02:45:48;;;;;;;14.93;10.02;;;;;;;15.12;100.00;101895.81;5113854;28;20051;-71
2021/09/29 02:48:33;;;;;;;12.68;9.70;;;;;;;15.49;100.00;101899.56;5098207;28;20032;-71
2021/09/29 02:51:19;;;;;;;13.43;9.27;;;;;;;14.90;100.00;101896.22;5114647;28;20532;-72
2021/09/29 02:54:05;;;;;;;13.90;9.18;;;;;;;14.78;100.00;101898.16;5115495;28;20036;-72
2021/09/29 02:56:51;;;;;;;18.33;11.20;;;;;;;15.06;100.00;101895.06;5102295;28;20030;-72
2021/09/29 02:59:37;;;;;;;15.40;10.10;;;;;;;15.05;100.00;101901.22;5117711;28;20102;-71
2021/09/29 03:02:23;;;;;;;18.50;10.20;;;;;;;15.27;100.00;101892.88;5116858;28;20074;-71
2021/09/29 03:05:08;;;;;;;18.63;10.52;;;;;;;15.17;100.00;101893.09;5117645;28;20479;-71
2021/09/29 03:07:54;;;;;;;18.52;10.98;;;;;;;14.96;100.00;101891.69;5116482;28;20408;-71
2021/09/29 03:10:41;;;;;;;13.70;9.43;;;;;;;14.87;100.00;101897.09;5116687;28;20023;-73
2021/09/29 03:13:27;;;;;;;15.48;9.45;;;;;;;14.45;100.00;101893.38;5117248;28;20092;-72
2021/09/29 03:16:14;;;;;;;17.75;10.30;;;;;;;14.92;100.00;101895.28;5102507;28;20458;-72
2021/09/29 03:19:01;;;;;;;14.80;9.25;;;;;;;14.69;100.00;101892.13;5100761;28;20038;-70
2021/09/29 03:21:46;;;;;;;13.55;9.00;;;;;;;14.64;100.00;101892.19;5117680;28;20111;-72
2021/09/29 03:24:32;;;;;;;13.40;9.13;;;;;;;14.70;100.00;101891.22;5117018;28;20024;-72
2021/09/29 03:27:18;;;;;;;15.88;8.68;;;;;;;14.77;100.00;101899.06;5102113;28;20026;-72
2021/09/29 03:30:04;;;;;;;14.93;9.02;;;;;;;15.23;100.00;101890.34;5102436;28;20027;-72
2021/09/29 03:32:50;;;;;;;11.88;8.40;;;;;;;15.24;100.00;101892.97;5115920;28;20045;-72
2021/09/29 03:35:36;;;;;;;15.63;8.45;;;;;;;15.50;100.00;101884.56;5115630;28;20015;-72
2021/09/29 03:38:22;;;;;;;12.85;8.43;;;;;;;14.99;100.00;101888.13;5101570;28;20360;-71
2021/09/29 03:41:08;;;;;;;16.02;9.02;;;;;;;15.07;100.00;101894.16;5116749;28;20027;-72
2021/09/29 03:43:54;;;;;;;15.00;9.07;;;;;;;15.14;100.00;101898.44;5116720;28;20357;-71
2021/09/29 03:46:39;;;;;;;14.93;8.48;;;;;;;15.27;100.00;101899.97;5116945;28;20041;-71
2021/09/29 03:49:25;;;;;;;12.52;8.90;;;;;;;14.91;100.00;101901.44;5117296;28;20118;-72
2021/09/29 03:52:11;;;;;;;13.30;8.65;;;;;;;14.54;100.00;101911.72;5101750;28;20030;-72
2021/09/29 03:54:57;;;;;;;15.30;9.65;;;;;;;14.36;100.00;101917.22;5101630;28;20123;-72
2021/09/29 03:57:43;;;;;;;12.25;8.85;;;;;;;14.84;100.00;101900.66;5116959;28;20026;-71
2021/09/29 04:00:28;;;;;;;13.18;9.50;;;;;;;14.46;100.00;101904.78;5116501;28;20360;-71
2021/09/29 04:03:15;;;;;;;13.10;10.25;;;;;;;14.56;100.00;101902.00;5116189;28;20499;-71
2021/09/29 04:06:00;;;;;;;14.65;10.05;;;;;;;14.52;100.00;101910.84;5114822;28;20038;-71
2021/09/29 04:08:46;;;;;;;15.00;10.73;;;;;;;14.32;100.00;101918.16;5115233;28;20036;-71
2021/09/29 04:11:33;;;;;;;17.52;9.88;;;;;;;14.23;100.00;101920.94;5116024;28;20027;-71
2021/09/29 04:14:20;;;;;;;15.30;10.10;;;;;;;14.72;100.00;101921.13;5116320;28;20104;-71
2021/09/29 04:17:06;;;;;;;12.93;9.40;;;;;;;14.29;100.00;101925.25;5115929;28;20467;-72
2021/09/29 04:19:52;;;;;;;20.67;9.73;;;;;;;14.64;100.00;101917.72;5115073;28;20070;-71
2021/09/29 04:22:38;;;;;;;13.77;10.20;;;;;;;14.38;100.00;101920.72;5116431;28;20027;-71
2021/09/29 04:25:24;;;;;;;13.38;9.88;;;;;;;14.95;100.00;101920.75;5114701;28;20118;-71
2021/09/29 04:28:10;;;;;;;13.18;10.10;;;;;;;14.70;100.00;101928.16;5115980;28;20312;-72
2021/09/29 04:30:56;;;;;;;14.68;9.93;;;;;;;14.44;100.00;101931.19;5115764;28;20065;-72
2021/09/29 04:33:42;;;;;;;15.68;9.75;;;;;;;14.24;100.00;101937.63;5100993;28;20424;-71
2021/09/29 04:36:27;;;;;;;18.60;10.80;;;;;;;14.44;100.00;101938.25;5116032;28;20036;-71
2021/09/29 04:39:13;;;;;;;13.63;10.30;;;;;;;14.64;100.00;101933.56;5115164;28;20431;-72
2021/09/29 04:41:59;;;;;;;15.70;10.27;;;;;;;14.70;100.00;101941.34;5110136;28;20056;-72
2021/09/29 04:44:45;;;;;;;17.48;10.38;;;;;;;15.03;100.00;101942.63;5114979;28;20020;-71
2021/09/29 04:47:31;;;;;;;13.52;10.05;;;;;;;14.30;100.00;101940.16;5101086;28;20140;-72
2021/09/29 04:50:18;;;;;;;15.57;11.10;;;;;;;14.29;100.00;101946.34;5099497;28;20069;-72
2021/09/29 04:53:05;;;;;;;15.98;10.68;;;;;;;14.39;100.00;101947.97;5100651;28;20336;-72
2021/09/29 04:55:50;;;;;;;15.50;9.48;;;;;;;14.62;100.00;101943.22;5114584;28;20027;-72
2021/09/29 04:58:36;;;;;;;16.15;10.20;;;;;;;14.37;100.00;101950.63;5100649;28;20031;-71
2021/09/29 05:01:25;;;;;;;11.93;9.70;;;;;;;14.59;100.00;101946.78;5098680;28;20122;-71
2021/09/29 05:04:11;;;;;;;13.38;10.05;;;;;;;14.96;100.00;101938.31;5114305;28;20085;-72
2021/09/29 05:06:59;;;;;;;12.90;9.80;;;;;;;14.86;100.00;101939.38;5114878;28;20031;-71
2021/09/29 05:09:45;;;;;;;15.38;10.30;;;;;;;14.52;100.00;101942.50;5114288;28;20341;-72
2021/09/29 05:12:32;;;;;;;16.30;10.38;;;;;;;14.43;100.00;101949.69;5115026;28;20034;-72
2021/09/29 05:15:18;;;;;;;16.45;10.05;;;;;;;14.12;100.00;101953.56;5100590;28;20443;-72
2021/09/29 05:18:04;;;;;;;15.98;10.43;;;;;;;14.13;100.00;101953.56;5113603;28;20055;-73
2021/09/29 05:20:50;;;;;;;22.02;10.57;;;;;;;14.38;100.00;101957.66;5098365;28;20110;-71
2021/09/29 05:23:36;;;;;;;13.10;9.75;;;;;;;14.39;100.00;101954.09;5100308;28;20122;-72
2021/09/29 05:26:21;;;;;;;16.92;10.50;;;;;;;14.76;100.00;101950.03;5099308;28;20031;-71
2021/09/29 05:29:11;;;;;;;14.38;10.57;;;;;;;14.49;100.00;101954.84;5115262;28;20038;-72
2021/09/29 05:31:58;;;;;;;14.55;10.27;;;;;;;14.70;100.00;101957.19;5098753;28;20062;-72
2021/09/29 05:34:43;;;;;;;16.83;9.90;;;;;;;14.43;100.00;101963.72;5114400;28;20020;-71
2021/09/29 05:37:29;;;;;;;12.07;10.02;;;;;;;14.87;100.00;101957.78;5100031;28;20023;-72
2021/09/29 05:40:15;;;;;;;17.27;10.77;;;;;;;14.32;100.00;101968.25;5114467;28;20401;-71
2021/09/29 05:43:01;;;;;;;14.25;10.40;;;;;;;14.84;100.00;101969.28;5099913;28;20427;-72
2021/09/29 05:45:46;;;;;;;14.32;9.93;;;;;;;14.96;100.00;101970.00;5114249;28;20504;-71
2021/09/29 05:48:32;;;;;;;16.65;10.32;;;;;;;14.46;100.00;101978.63;5113854;28;20349;-73
2021/09/29 05:51:18;;;;;;;16.05;10.70;;;;;;;14.60;100.00;101984.59;5114772;28;20077;-72
2021/09/29 05:54:04;;;;;;;15.55;10.73;;;;;;;14.57;100.00;101988.16;5114349;28;20027;-71
2021/09/29 05:56:50;;;;;;;14.30;10.02;;;;;;;14.50;100.00;101988.25;5113389;28;20399;-71
2021/09/29 05:59:35;;;;;;;14.40;10.15;;;;;;;15.01;100.00;101990.16;5114597;28;20557;-72
2021/09/29 06:02:21;;;;;;;16.85;11.02;;;;;;;14.79;100.00;101991.34;5113735;28;20103;-72
2021/09/29 06:05:07;;;;;;;15.85;11.02;;;;;;;14.64;100.00;101996.84;5113798;28;20023;-72
2021/09/29 06:07:53;;;;;;;18.05;11.52;;;;;;;14.72;100.00;102006.41;5113731;28;20157;-72
2021/09/29 06:10:39;;;;;;;16.85;11.13;;;;;;;14.73;100.00;101994.97;5113218;28;20031;-72
2021/09/29 06:13:25;;;;;;;13.38;9.60;;;;;;;14.55;100.00;102000.47;5113987;28;20123;-72
2021/09/29 06:16:11;;;;;;;16.25;10.10;;;;;;;14.87;100.00;101997.38;5114873;28;20382;-73
2021/09/29 06:18:57;;;;;;;17.10;10.65;;;;;;;15.20;100.00;101991.59;5114179;28;20070;-72
2021/09/29 06:21:44;;;;;;;17.27;11.02;;;;;;;14.54;100.00;102000.50;5113635;28;20444;-73
2021/09/29 06:24:30;;;;;;;17.23;10.65;;;;;;;14.68;100.00;102004.69;5099382;28;20039;-71
2021/09/29 06:27:16;;;;;;;18.33;11.23;;;;;;;14.16;100.00;102003.56;5099378;28;20031;-72
2021/09/29 06:30:03;;;;;;;19.75;12.48;;;;;;;14.18;100.00;102007.06;5117129;28;20434;-73
2021/09/29 06:32:49;;;;;;;14.95;12.38;;;;;;;14.42;100.00;102011.19;5117642;28;20020;-72
2021/09/29 06:35:35;;;;;;;18.40;13.00;;;;;;;14.17;100.00;102005.34;5117985;28;20036;-71
2021/09/29 06:38:21;;;;;;;17.15;13.95;;;;;;;14.18;100.00;102009.72;5116237;28;20016;-72
2021/09/29 06:41:06;;;;;;;22.42;14.02;;;;;;;14.22;100.00;102013.22;5117749;28;20055;-72
2021/09/29 06:43:52;;;;;;;24.08;13.93;;;;;;;14.19;100.00;102011.44;5117038;28;20027;-71
2021/09/29 06:46:38;;;;;;;22.70;14.75;;;;;;;13.99;100.00;102009.94;5117328;28;20040;-71
2021/09/29 06:49:24;;;;;;;19.10;13.10;;;;;;;13.92;100.00;102019.69;5117347;28;20366;-71
2021/09/29 06:52:09;;;;;;;20.63;13.98;;;;;;;14.16;100.00;102015.91;5117412;28;20059;-72
2021/09/29 06:54:55;;;;;;;22.85;12.52;;;;;;;14.07;100.00;102024.78;5102213;28;20027;-71
2021/09/29 06:57:42;;;;;;;19.73;12.48;;;;;;;14.68;100.00;102025.78;5117922;28;20093;-72
2021/09/29 07:00:27;;;;;;;20.23;12.48;;;;;;;14.41;100.00;102035.84;5116374;28;20405;-71
2021/09/29 07:03:14;;;;;;;23.23;11.95;;;;;;;14.44;100.00;102030.53;5116611;28;20172;-71
2021/09/29 07:06:00;;;;;;;17.45;10.15;;;;;;;14.43;100.00;102034.91;5117702;28;20032;-71
2021/09/29 07:08:49;;;;;;;19.65;11.18;;;;;;;14.79;100.00;102034.44;5116227;28;20384;-71
2021/09/29 07:11:35;;;;;;;15.77;10.18;;;;;;;14.72;100.00;102032.78;5116829;28;20031;-72
2021/09/29 07:14:21;;;;;;;15.15;9.93;;;;;;;15.10;100.00;102026.09;5116294;28;20062;-71
2021/09/29 07:17:07;;;;;;;11.77;8.98;;;;;;;14.71;100.00;102025.75;5117645;28;20364;-71
2021/09/29 07:19:57;;;;;;;15.80;9.77;;;;;;;15.04;100.00;102028.81;5116963;28;20035;-71
2021/09/29 07:22:42;;;;;;;16.25;10.05;;;;;;;14.95;100.00;102026.31;5118024;28;20027;-72
2021/09/29 07:25:30;;;;;;;13.05;8.60;;;;;;;15.48;100.00;102024.63;5116345;28;20528;-71
2021/09/29 07:28:16;;;;;;;14.88;9.90;;;;;;;15.17;100.00;102035.66;5115969;28;20028;-72
2021/09/29 07:31:02;;;;;;;16.73;10.32;;;;;;;15.29;100.00;102043.38;5116291;28;20024;-71
2021/09/29 07:33:48;;;;;;;24.52;14.73;;;;;;;15.16;100.00;102053.28;5101298;28;20023;-71
2021/09/29 07:36:39;;;;;;;17.15;9.80;;;;;;;14.71;100.00;102052.16;5117167;28;20012;-70
2021/09/29 07:39:25;;;;;;;17.30;9.73;;;;;;;14.93;100.00;102057.13;5116833;28;20103;-72
2021/09/29 07:42:11;;;;;;;11.60;9.20;;;;;;;15.25;100.00;102046.97;5116502;28;20057;-72
2021/09/29 07:44:57;;;;;;;18.92;9.43;;;;;;;15.74;100.00;102038.25;5116403;28;20032;-72
2021/09/29 07:47:42;;;;;;;15.05;8.98;;;;;;;15.41;100.00;102045.84;5116543;28;20109;-71
2021/09/29 07:50:28;;;;;;;18.02;10.38;;;;;;;16.07;100.00;102045.56;5116606;28;20036;-72
2021/09/29 07:53:15;;;;;;;10.77;8.40;;;;;;;15.99;100.00;102043.97;5116296;28;20024;-72
2021/09/29 07:56:01;;;;;;;12.10;9.55;;;;;;;16.27;100.00;102047.84;5101042;28;20114;-72
2021/09/29 07:58:47;;;;;;;13.45;9.13;;;;;;;16.01;100.00;102047.44;5102488;28;20019;-71
2021/09/29 08:01:32;;;;;;;16.50;10.38;;;;;;;16.05;100.00;102057.06;5101086;28;20028;-72
2021/09/29 08:04:21;;;;;;;15.27;9.50;;;;;;;16.13;100.00;102057.78;5116585;28;20031;-71
2021/09/29 08:07:08;;;;;;;14.55;9.00;;;;;;;16.07;100.00;102052.63;5115742;28;20478;-71
2021/09/29 08:09:54;;;;;;;22.35;12.65;;;;;;;16.37;100.00;102044.97;5116487;28;20440;-72
2021/09/29 08:12:39;;;;;;;13.68;9.02;;;;;;;16.36;100.00;102052.94;5115489;28;20028;-71
2021/09/29 08:15:25;;;;;;;17.55;9.20;;;;;;;15.80;100.00;102056.66;5101766;28;20066;-71
2021/09/29 08:18:11;;;;;;;15.02;9.13;;;;;;;15.79;100.00;102056.69;5100893;28;20111;-71
2021/09/29 08:20:59;;;;;;;16.17;9.85;;;;;;;15.51;100.00;102063.31;5100696;28;20039;-72
2021/09/29 08:23:49;;;;;;;20.23;9.13;;;;;;;15.76;100.00;102054.06;5115878;28;20046;-71
2021/09/29 08:35:56;;;;;;;12.85;9.00;;;;;;;15.31;100.00;102070.66;5082481;28;20031;-72
2021/09/29 08:42:07;;;;;;;20.67;10.50;;;;;;;15.75;100.00;102057.63;5114596;28;20106;-72
2021/09/29 08:45:02;;;;;;;19.52;9.80;;;;;;;16.36;100.00;102061.72;5115053;28;20371;-72
2021/09/29 08:47:57;;;;;;;18.55;9.60;;;;;;;15.85;100.00;102062.72;5100727;28;20039;-73
2021/09/29 08:56:54;;;;;;;17.08;9.30;;;;;;;15.95;100.00;102066.94;5114871;28;20573;-72
2021/09/29 09:15:37;;;;;;;19.80;10.02;;;;;;;16.76;100.00;102061.84;5115247;28;20363;-72
2021/09/29 09:18:23;;;;;;;13.95;8.90;;;;;;;16.60;100.00;102060.41;5113814;28;20027;-71
2021/09/29 09:21:12;;;;;;;20.42;9.48;;;;;;;16.39;100.00;102060.81;5100807;28;20110;-71
2021/09/29 09:23:59;;;;;;;18.25;9.48;;;;;;;16.39;100.00;102066.97;5115378;28;20433;-71
2021/09/29 09:26:59;;;;;;;16.10;8.50;;;;;;;16.66;100.00;102061.16;5098636;28;20489;-72
2021/09/29 09:29:51;;;;;;;15.73;8.52;;;;;;;16.68;100.00;102061.13;5114512;28;20028;-72
2021/09/29 09:32:50;;;;;;;17.40;9.07;;;;;;;16.74;100.00;102056.56;5099989;28;20106;-72
2021/09/29 09:35:47;;;;;;;14.48;8.02;;;;;;;16.82;100.00;102062.56;5114965;28;20111;-72
2021/09/29 09:38:35;;;;;;;11.95;8.35;;;;;;;16.37;100.00;102065.25;5099040;28;20423;-72
2021/09/29 09:41:24;;;;;;;19.65;8.40;;;;;;;16.78;100.00;102067.94;5114376;28;20031;-72
2021/09/29 09:44:09;;;;;;;10.77;8.10;;;;;;;17.11;100.00;102062.78;5114161;28;20027;-72
2021/09/29 09:47:12;;;;;;;14.43;7.50;;;;;;;17.10;100.00;102054.88;5114061;28;20345;-72
2021/09/29 09:49:58;;;;;;;11.98;8.70;;;;;;;16.87;100.00;102059.81;5099132;28;20117;-72
2021/09/29 09:52:45;;;;;;;14.60;8.40;;;;;;;16.71;100.00;102071.63;5115160;28;20122;-73
2021/09/29 09:55:36;;;;;;;15.02;8.02;;;;;;;16.60;100.00;102066.56;5098533;28;20359;-73
2021/09/29 09:58:22;;;;;;;18.13;8.88;;;;;;;16.73;100.00;102067.19;5114503;28;20046;-73
2021/09/29 10:01:17;;;;;;;18.58;8.85;;;;;;;16.75;100.00;102070.66;5114229;28;20459;-72
2021/09/29 10:04:12;;;;;;;16.58;8.82;;;;;;;16.94;100.00;102072.00;5117547;28;20363;-72
2021/09/29 10:06:58;;;;;;;13.77;8.88;;;;;;;17.12;100.00;102068.97;5103097;28;20120;-72
2021/09/29 10:09:55;;;;;;;21.40;8.93;;;;;;;16.77;100.00;102067.09;5117859;28;20024;-72
2021/09/29 10:29:12;;;;;;;12.40;7.20;;;;;;;17.23;100.00;102069.56;5118322;28;20024;-71
2021/09/29 10:32:30;;;;;;;14.52;7.82;;;;;;;16.93;100.00;102068.50;5117141;28;20036;-72
2021/09/29 10:41:07;;;;;;;18.02;7.97;;;;;;;17.36;100.00;102057.78;5117817;28;20084;-72
2021/09/29 10:44:08;;;;;;;12.18;8.30;;;;;;;17.52;100.00;102064.50;5118205;28;20336;-73
2021/09/29 10:47:28;;;;;;;14.32;7.55;;;;;;;18.02;100.00;102064.94;5102498;28;20054;-72
2021/09/29 11:10:15;;;;;;;14.68;7.82;;;;;;;17.48;100.00;102068.97;5117111;28;20070;-74
2021/09/29 11:31:06;;;;;;;13.93;8.65;;;;;;;17.69;100.00;102054.34;5118060;28;20028;-73
2021/09/29 11:34:01;;;;;;;19.08;9.20;;;;;;;17.94;100.00;102055.44;5117183;28;20111;-73
2021/09/29 11:40:05;;;;;;;12.73;7.38;;;;;;;17.44;100.00;102050.56;5117161;28;20101;-73
2021/09/29 12:11:14;;;;;;;13.25;6.97;;;;;;;18.85;100.00;102036.03;5117174;28;20024;-74
2021/09/29 12:14:02;;;;;;;16.70;7.20;;;;;;;19.48;100.00;102031.34;5101223;28;20038;-73
2021/09/29 12:16:49;;;;;;;15.40;7.75;;;;;;;19.27;100.00;102033.81;5113759;28;20027;-73
2021/09/29 12:19:39;;;;;;;13.45;7.32;;;;;;;19.15;100.00;102035.94;5101228;28;20172;-73
2021/09/29 12:22:31;;;;;;;10.05;6.72;;;;;;;18.93;100.00;102039.31;5115941;28;20122;-73
2021/09/29 12:26:06;;;;;;;12.70;6.97;;;;;;;19.32;100.00;102034.56;5115916;28;20099;-74
2021/09/29 12:28:54;;;;;;;15.68;7.72;;;;;;;19.26;100.00;102032.97;5105601;28;20030;-73
2021/09/29 12:31:48;;;;;;;15.57;7.03;;;;;;;19.41;100.00;102028.94;5100440;28;20058;-74
2021/09/29 12:34:46;;;;;;;18.55;11.23;;;;;;;19.30;100.00;102039.94;5099597;28;20057;-73
2021/09/29 12:37:32;;;;;;;19.05;8.57;;;;;;;19.21;100.00;102037.53;5100459;28;20024;-74
2021/09/29 12:40:18;;;;;;;19.85;8.95;;;;;;;20.10;100.00;102035.41;5115517;28;20046;-74
2021/09/29 12:43:09;;;;;;;13.25;7.15;;;;;;;19.89;100.00;102030.78;5115494;28;20054;-74
2021/09/29 12:45:57;;;;;;;13.25;7.32;;;;;;;20.22;100.00;102034.09;5115262;28;20413;-73
2021/09/29 12:48:45;;;;;;;15.48;8.30;;;;;;;19.67;100.00;102024.50;5115506;28;20024;-74
2021/09/29 12:51:32;;;;;;;18.80;7.70;;;;;;;19.89;100.00;102017.50;5100937;28;20068;-73
2021/09/29 12:54:21;;;;;;;15.65;7.55;;;;;;;19.55;100.00;102019.59;5101024;28;20031;-74
2021/09/29 12:57:07;;;;;;;13.90;7.47;;;;;;;19.63;100.00;102016.66;5099965;28;20107;-74
2021/09/29 12:59:54;;;;;;;18.85;7.88;;;;;;;20.14;100.00;102017.53;5114895;28;20039;-74
2021/09/29 13:02:41;;;;;;;24.05;9.73;;;;;;;19.54;100.00;102015.19;5114994;28;20023;-74
2021/09/29 13:05:27;;;;;;;23.75;10.95;;;;;;;19.65;100.00;102015.69;5115402;28;20031;-75
2021/09/29 13:08:13;;;;;;;16.77;8.02;;;;;;;19.61;100.00;102016.69;5099725;28;20035;-74
2021/09/29 13:10:59;;;;;;;19.50;8.40;;;;;;;19.15;100.00;102016.47;5115093;28;20066;-74
2021/09/29 13:13:45;;;;;;;13.27;7.45;;;;;;;19.93;100.00;102004.97;5115447;28;20023;-73
2021/09/29 13:16:32;;;;;;;18.58;7.55;;;;;;;19.92;100.00;102003.22;5114740;28;20426;-73
2021/09/29 13:19:26;;;;;;;16.08;7.55;;;;;;;19.69;100.00;102006.69;5099799;28;20028;-74
2021/09/29 13:22:18;;;;;;;18.67;8.48;;;;;;;19.82;100.00;102001.81;5114456;28;20141;-73
2021/09/29 13:37:23;;;;;;;13.52;7.55;;;;;;;19.92;100.00;102006.75;5114020;28;20019;-74
2021/09/29 13:40:09;;;;;;;13.32;8.02;;;;;;;19.77;100.00;101999.31;5114242;28;20038;-73
2021/09/29 13:42:57;;;;;;;14.98;7.55;;;;;;;20.35;100.00;101998.09;5114480;28;20024;-73
2021/09/29 13:45:43;;;;;;;14.35;7.93;;;;;;;20.05;100.00;101997.41;5114440;28;20047;-73
2021/09/29 13:48:30;;;;;;;12.00;7.03;;;;;;;20.30;100.00;101998.28;5100820;28;20048;-74
2021/09/29 13:51:16;;;;;;;11.02;7.45;;;;;;;20.21;100.00;101993.28;5099016;28;20182;-74
2021/09/29 13:54:15;;;;;;;11.30;7.60;;;;;;;20.42;100.00;102000.50;5100276;28;20023;-74
2021/09/29 14:30:42;;;;;;;16.20;7.00;;;;;;;20.58;90.71;101976.81;5114275;28;20024;-73
2021/09/29 14:33:34;;;;;;;15.65;8.70;;;;;;;20.57;93.46;101975.94;5099944;28;20020;-73
2021/09/29 14:36:20;;;;;;;11.90;7.63;;;;;;;20.60;91.79;101975.81;5099385;28;20421;-74
2021/09/29 14:39:06;;;;;;;14.10;7.80;;;;;;;20.38;94.68;101974.03;5099332;28;20030;-73
2021/09/29 14:41:53;;;;;;;14.48;7.88;;;;;;;20.51;93.51;101978.84;5113391;28;20020;-74
2021/09/29 14:44:39;;;;;;;13.40;7.82;;;;;;;20.48;95.63;101972.75;5113553;28;20024;-73
2021/09/29 14:47:25;;;;;;;15.75;8.25;;;;;;;20.42;97.74;101971.22;5112810;28;20059;-73
2021/09/29 14:50:11;;;;;;;13.48;7.95;;;;;;;20.40;99.14;101981.03;5115343;28;20038;-73
2021/09/29 14:52:58;;;;;;;16.08;7.90;;;;;;;19.99;100.00;101976.34;5102303;28;20019;-74
2021/09/29 14:55:44;;;;;;;17.98;8.60;;;;;;;19.98;100.00;101984.38;5116747;28;20024;-73
2021/09/29 14:58:34;;;;;;;13.20;7.85;;;;;;;19.89;100.00;101982.06;5118616;28;20042;-73
2021/09/29 15:01:23;;;;;;;14.25;8.23;;;;;;;20.03;100.00;101983.28;5117249;28;20062;-74
2021/09/29 15:04:09;;;;;;;13.70;8.63;;;;;;;19.87;100.00;101989.22;5102160;28;20119;-73
2021/09/29 15:06:54;;;;;;;16.52;8.98;;;;;;;19.92;100.00;101987.25;5101498;28;20027;-73
2021/09/29 15:09:40;;;;;;;16.67;9.20;;;;;;;19.47;100.00;101994.16;5117594;28;20026;-75
2021/09/29 15:12:27;;;;;;;21.45;11.02;;;;;;;19.48;100.00;101988.81;5117746;28;20447;-73
2021/09/29 15:15:26;;;;;;;26.02;13.30;;;;;;;19.37;100.00;101990.09;5117115;28;20443;-74
2021/09/29 15:18:17;;;;;;;25.10;12.77;;;;;;;19.52;100.00;101993.09;5117052;28;20039;-73
2021/09/29 15:21:17;;;;;;;18.48;11.35;;;;;;;19.58;100.00;101994.69;5117425;28;20023;-73
2021/09/29 15:24:23;;;;;;;15.63;10.00;;;;;;;19.43;100.00;101998.72;5101809;28;20020;-73
2021/09/29 15:48:30;;;;;;;21.48;11.15;;;;;;;19.67;100.00;102005.88;5116263;28;20024;-73
2021/09/29 15:51:26;;;;;;;24.40;12.30;;;;;;;19.54;100.00;102006.34;5101538;28;20123;-74
2021/09/29 15:54:36;;;;;;;21.67;11.70;;;;;;;19.54;100.00;102009.88;5116533;28;20463;-74